sensor_id;sensor_type;location;lat;lon;timestamp;P1;durP1;ratioP1;P2;durP2;ratioP2
4508;SDS011;2267;48.816;9.230;2022-09-02T00:01:29;5.73;;;5.23;;
4508;SDS011;2267;48.816;9.230;2022-09-02T00:04:00;5.60;;;5.10;;
4508;SDS011;2267;48.816;9.230;2022-09-02T00:06:29;4.97;;;4.57;;
4508;SDS011;2267;48.816;9.230;2022-09-02T00:08:57;5.97;;;5.43;;
4508;SDS011;2267;48.816;9.230;2022-09-02T00:11:26;5.00;;;4.60;;
4508;SDS011;2267;48.816;9.230;2022-09-02T00:13:54;5.20;;;4.80;;
4508;SDS011;2267;48.816;9.230;2022-09-02T00:16:22;4.87;;;4.53;;
4508;SDS011;2267;48.816;9.230;2022-09-02T00:18:50;4.93;;;4.63;;
4508;SDS011;2267;48.816;9.230;2022-09-02T00:21:18;5.67;;;5.27;;
4508;SDS011;2267;48.816;9.230;2022-09-02T00:23:46;5.50;;;5.00;;
4508;SDS011;2267;48.816;9.230;2022-09-02T00:26:13;5.33;;;4.93;;
4508;SDS011;2267;48.816;9.230;2022-09-02T00:28:40;5.63;;;5.13;;
4508;SDS011;2267;48.816;9.230;2022-09-02T00:31:16;6.43;;;5.80;;
4508;SDS011;2267;48.816;9.230;2022-09-02T00:33:43;5.37;;;4.97;;
4508;SDS011;2267;48.816;9.230;2022-09-02T00:36:10;5.00;;;4.60;;
4508;SDS011;2267;48.816;9.230;2022-09-02T00:38:37;4.93;;;4.43;;
4508;SDS011;2267;48.816;9.230;2022-09-02T00:41:06;5.47;;;4.77;;
4508;SDS011;2267;48.816;9.230;2022-09-02T00:46:32;5.23;;;4.43;;
4508;SDS011;2267;48.816;9.230;2022-09-02T00:49:11;4.60;;;4.20;;
4508;SDS011;2267;48.816;9.230;2022-09-02T00:51:43;4.70;;;4.40;;
4508;SDS011;2267;48.816;9.230;2022-09-02T00:54:13;4.93;;;4.63;;
4508;SDS011;2267;48.816;9.230;2022-09-02T00:56:42;4.90;;;4.60;;
4508;SDS011;2267;48.816;9.230;2022-09-02T00:59:12;5.30;;;4.80;;
4508;SDS011;2267;48.816;9.230;2022-09-02T01:01:45;5.47;;;5.07;;
4508;SDS011;2267;48.816;9.230;2022-09-02T01:04:13;5.07;;;4.67;;
4508;SDS011;2267;48.816;9.230;2022-09-02T01:06:41;5.67;;;5.20;;
4508;SDS011;2267;48.816;9.230;2022-09-02T01:09:11;4.93;;;4.63;;
4508;SDS011;2267;48.816;9.230;2022-09-02T01:11:48;5.03;;;4.63;;
4508;SDS011;2267;48.816;9.230;2022-09-02T01:14:17;5.80;;;4.60;;
4508;SDS011;2267;48.816;9.230;2022-09-02T01:16:46;6.10;;;4.80;;
4508;SDS011;2267;48.816;9.230;2022-09-02T01:19:22;5.57;;;4.80;;
4508;SDS011;2267;48.816;9.230;2022-09-02T01:21:52;5.43;;;5.13;;
4508;SDS011;2267;48.816;9.230;2022-09-02T01:24:21;5.83;;;5.33;;
4508;SDS011;2267;48.816;9.230;2022-09-02T01:26:51;5.50;;;4.60;;
4508;SDS011;2267;48.816;9.230;2022-09-02T01:29:20;5.20;;;4.80;;
4508;SDS011;2267;48.816;9.230;2022-09-02T01:31:48;4.53;;;4.23;;
4508;SDS011;2267;48.816;9.230;2022-09-02T01:34:15;4.97;;;4.50;;
4508;SDS011;2267;48.816;9.230;2022-09-02T01:36:43;5.47;;;5.07;;
4508;SDS011;2267;48.816;9.230;2022-09-02T01:39:11;4.87;;;4.57;;
4508;SDS011;2267;48.816;9.230;2022-09-02T01:41:38;5.20;;;4.80;;
4508;SDS011;2267;48.816;9.230;2022-09-02T01:44:06;4.90;;;4.50;;
4508;SDS011;2267;48.816;9.230;2022-09-02T01:46:33;5.40;;;5.00;;
4508;SDS011;2267;48.816;9.230;2022-09-02T01:49:02;4.73;;;4.43;;
4508;SDS011;2267;48.816;9.230;2022-09-02T01:51:29;5.00;;;4.60;;
4508;SDS011;2267;48.816;9.230;2022-09-02T01:53:56;5.50;;;4.80;;
4508;SDS011;2267;48.816;9.230;2022-09-02T01:56:23;4.80;;;4.40;;
4508;SDS011;2267;48.816;9.230;2022-09-02T01:58:50;5.27;;;4.87;;
4508;SDS011;2267;48.816;9.230;2022-09-02T02:01:18;4.80;;;4.40;;
4508;SDS011;2267;48.816;9.230;2022-09-02T02:03:45;4.73;;;4.33;;
4508;SDS011;2267;48.816;9.230;2022-09-02T02:06:14;5.40;;;4.90;;
4508;SDS011;2267;48.816;9.230;2022-09-02T02:08:42;3.80;;;3.60;;
4508;SDS011;2267;48.816;9.230;2022-09-02T02:11:10;5.20;;;4.80;;
4508;SDS011;2267;48.816;9.230;2022-09-02T02:13:43;4.83;;;4.43;;
4508;SDS011;2267;48.816;9.230;2022-09-02T02:16:10;4.70;;;4.40;;
4508;SDS011;2267;48.816;9.230;2022-09-02T02:18:37;4.20;;;3.90;;
4508;SDS011;2267;48.816;9.230;2022-09-02T02:21:04;5.23;;;4.83;;
4508;SDS011;2267;48.816;9.230;2022-09-02T02:23:31;5.10;;;4.63;;
4508;SDS011;2267;48.816;9.230;2022-09-02T02:25:58;4.80;;;4.40;;
4508;SDS011;2267;48.816;9.230;2022-09-02T02:28:25;5.10;;;4.70;;
4508;SDS011;2267;48.816;9.230;2022-09-02T02:30:52;4.20;;;3.90;;
4508;SDS011;2267;48.816;9.230;2022-09-02T02:33:19;4.37;;;4.07;;
4508;SDS011;2267;48.816;9.230;2022-09-02T02:35:51;4.63;;;4.27;;
4508;SDS011;2267;48.816;9.230;2022-09-02T02:38:20;4.23;;;3.93;;
4508;SDS011;2267;48.816;9.230;2022-09-02T02:40:48;4.27;;;3.90;;
4508;SDS011;2267;48.816;9.230;2022-09-02T02:43:15;4.77;;;4.37;;
4508;SDS011;2267;48.816;9.230;2022-09-02T02:45:42;4.57;;;4.17;;
4508;SDS011;2267;48.816;9.230;2022-09-02T02:48:09;5.00;;;4.60;;
4508;SDS011;2267;48.816;9.230;2022-09-02T02:50:36;4.60;;;4.20;;
4508;SDS011;2267;48.816;9.230;2022-09-02T02:53:03;5.00;;;4.60;;
4508;SDS011;2267;48.816;9.230;2022-09-02T02:55:29;5.40;;;4.90;;
4508;SDS011;2267;48.816;9.230;2022-09-02T02:57:56;5.60;;;5.10;;
4508;SDS011;2267;48.816;9.230;2022-09-02T03:00:24;5.20;;;4.70;;
4508;SDS011;2267;48.816;9.230;2022-09-02T03:02:57;5.03;;;4.63;;
4508;SDS011;2267;48.816;9.230;2022-09-02T03:05:26;4.83;;;4.53;;
4508;SDS011;2267;48.816;9.230;2022-09-02T03:07:54;5.33;;;5.03;;
4508;SDS011;2267;48.816;9.230;2022-09-02T03:10:22;4.70;;;4.40;;
4508;SDS011;2267;48.816;9.230;2022-09-02T03:12:49;5.57;;;5.07;;
4508;SDS011;2267;48.816;9.230;2022-09-02T03:15:16;5.77;;;5.00;;
4508;SDS011;2267;48.816;9.230;2022-09-02T03:17:45;5.80;;;5.30;;
4508;SDS011;2267;48.816;9.230;2022-09-02T03:20:13;5.30;;;4.90;;
4508;SDS011;2267;48.816;9.230;2022-09-02T03:22:44;4.97;;;4.60;;
4508;SDS011;2267;48.816;9.230;2022-09-02T03:25:14;4.93;;;4.53;;
4508;SDS011;2267;48.816;9.230;2022-09-02T03:27:43;5.13;;;4.73;;
4508;SDS011;2267;48.816;9.230;2022-09-02T03:30:14;4.37;;;3.97;;
4508;SDS011;2267;48.816;9.230;2022-09-02T03:32:47;4.87;;;4.27;;
4508;SDS011;2267;48.816;9.230;2022-09-02T03:35:15;4.67;;;4.27;;
4508;SDS011;2267;48.816;9.230;2022-09-02T03:37:44;4.30;;;4.00;;
4508;SDS011;2267;48.816;9.230;2022-09-02T03:40:12;4.93;;;4.50;;
4508;SDS011;2267;48.816;9.230;2022-09-02T03:42:48;4.77;;;4.27;;
4508;SDS011;2267;48.816;9.230;2022-09-02T03:45:16;5.00;;;4.60;;
4508;SDS011;2267;48.816;9.230;2022-09-02T03:47:44;4.90;;;4.50;;
4508;SDS011;2267;48.816;9.230;2022-09-02T03:50:23;5.17;;;4.67;;
4508;SDS011;2267;48.816;9.230;2022-09-02T03:52:56;4.67;;;4.33;;
4508;SDS011;2267;48.816;9.230;2022-09-02T03:55:24;5.10;;;4.70;;
4508;SDS011;2267;48.816;9.230;2022-09-02T03:57:52;4.73;;;4.33;;
4508;SDS011;2267;48.816;9.230;2022-09-02T04:00:20;5.33;;;4.83;;
4508;SDS011;2267;48.816;9.230;2022-09-02T04:02:50;5.33;;;4.90;;
4508;SDS011;2267;48.816;9.230;2022-09-02T04:05:18;5.13;;;4.73;;
4508;SDS011;2267;48.816;9.230;2022-09-02T04:07:44;4.13;;;3.83;;
4508;SDS011;2267;48.816;9.230;2022-09-02T04:10:12;4.63;;;4.33;;
4508;SDS011;2267;48.816;9.230;2022-09-02T04:12:40;5.30;;;4.80;;
4508;SDS011;2267;48.816;9.230;2022-09-02T04:15:07;4.50;;;4.20;;
4508;SDS011;2267;48.816;9.230;2022-09-02T04:21:17;4.40;;;4.00;;
4508;SDS011;2267;48.816;9.230;2022-09-02T04:23:44;4.93;;;4.53;;
4508;SDS011;2267;48.816;9.230;2022-09-02T04:26:13;4.07;;;3.77;;
4508;SDS011;2267;48.816;9.230;2022-09-02T04:28:42;5.13;;;4.50;;
4508;SDS011;2267;48.816;9.230;2022-09-02T04:31:10;7.23;;;4.20;;
4508;SDS011;2267;48.816;9.230;2022-09-02T04:33:38;4.73;;;4.37;;
4508;SDS011;2267;48.816;9.230;2022-09-02T04:36:06;4.27;;;3.97;;
4508;SDS011;2267;48.816;9.230;2022-09-02T04:38:37;5.97;;;4.43;;
4508;SDS011;2267;48.816;9.230;2022-09-02T04:41:08;4.50;;;4.00;;
4508;SDS011;2267;48.816;9.230;2022-09-02T04:43:40;7.23;;;4.67;;
4508;SDS011;2267;48.816;9.230;2022-09-02T04:46:08;4.73;;;4.10;;
4508;SDS011;2267;48.816;9.230;2022-09-02T04:48:38;4.67;;;4.03;;
4508;SDS011;2267;48.816;9.230;2022-09-02T04:51:06;4.83;;;4.40;;
4508;SDS011;2267;48.816;9.230;2022-09-02T04:53:35;5.33;;;4.83;;
4508;SDS011;2267;48.816;9.230;2022-09-02T04:56:05;4.50;;;4.10;;
4508;SDS011;2267;48.816;9.230;2022-09-02T04:58:34;4.70;;;4.33;;
4508;SDS011;2267;48.816;9.230;2022-09-02T05:01:09;4.77;;;4.47;;
4508;SDS011;2267;48.816;9.230;2022-09-02T05:03:39;5.00;;;4.50;;
4508;SDS011;2267;48.816;9.230;2022-09-02T05:06:11;5.60;;;4.97;;
4508;SDS011;2267;48.816;9.230;2022-09-02T05:08:39;4.50;;;4.10;;
4508;SDS011;2267;48.816;9.230;2022-09-02T05:13:39;4.60;;;4.27;;
4508;SDS011;2267;48.816;9.230;2022-09-02T05:16:06;5.27;;;4.77;;
4508;SDS011;2267;48.816;9.230;2022-09-02T05:18:33;5.93;;;4.83;;
4508;SDS011;2267;48.816;9.230;2022-09-02T05:21:04;4.27;;;3.93;;
4508;SDS011;2267;48.816;9.230;2022-09-02T05:23:31;4.63;;;4.23;;
4508;SDS011;2267;48.816;9.230;2022-09-02T05:26:06;7.20;;;5.03;;
4508;SDS011;2267;48.816;9.230;2022-09-02T05:28:34;4.97;;;4.47;;
4508;SDS011;2267;48.816;9.230;2022-09-02T05:31:02;5.30;;;4.83;;
4508;SDS011;2267;48.816;9.230;2022-09-02T05:33:31;6.97;;;4.20;;
4508;SDS011;2267;48.816;9.230;2022-09-02T05:35:58;4.80;;;4.40;;
4508;SDS011;2267;48.816;9.230;2022-09-02T05:38:27;4.50;;;4.00;;
4508;SDS011;2267;48.816;9.230;2022-09-02T05:40:54;4.77;;;4.33;;
4508;SDS011;2267;48.816;9.230;2022-09-02T05:43:21;4.00;;;3.70;;
4508;SDS011;2267;48.816;9.230;2022-09-02T05:45:48;5.97;;;5.33;;
4508;SDS011;2267;48.816;9.230;2022-09-02T05:48:15;5.60;;;5.17;;
4508;SDS011;2267;48.816;9.230;2022-09-02T05:51:04;11.93;;;5.63;;
4508;SDS011;2267;48.816;9.230;2022-09-02T05:53:31;5.30;;;4.80;;
4508;SDS011;2267;48.816;9.230;2022-09-02T05:55:58;5.30;;;4.70;;
4508;SDS011;2267;48.816;9.230;2022-09-02T05:58:30;6.10;;;5.50;;
4508;SDS011;2267;48.816;9.230;2022-09-02T06:00:57;5.97;;;5.43;;
4508;SDS011;2267;48.816;9.230;2022-09-02T06:03:24;4.50;;;4.10;;
4508;SDS011;2267;48.816;9.230;2022-09-02T06:05:57;5.63;;;4.63;;
4508;SDS011;2267;48.816;9.230;2022-09-02T06:08:32;6.03;;;5.43;;
4508;SDS011;2267;48.816;9.230;2022-09-02T06:11:00;8.80;;;6.10;;
4508;SDS011;2267;48.816;9.230;2022-09-02T06:13:28;5.43;;;4.93;;
4508;SDS011;2267;48.816;9.230;2022-09-02T06:15:55;6.10;;;5.57;;
4508;SDS011;2267;48.816;9.230;2022-09-02T06:18:23;5.97;;;4.53;;
4508;SDS011;2267;48.816;9.230;2022-09-02T06:20:51;7.80;;;5.03;;
4508;SDS011;2267;48.816;9.230;2022-09-02T06:23:18;4.87;;;4.03;;
4508;SDS011;2267;48.816;9.230;2022-09-02T06:25:47;5.80;;;4.73;;
4508;SDS011;2267;48.816;9.230;2022-09-02T06:28:14;6.27;;;4.77;;
4508;SDS011;2267;48.816;9.230;2022-09-02T06:30:42;4.80;;;4.07;;
4508;SDS011;2267;48.816;9.230;2022-09-02T06:33:10;4.33;;;3.57;;
4508;SDS011;2267;48.816;9.230;2022-09-02T06:35:39;4.80;;;4.40;;
4508;SDS011;2267;48.816;9.230;2022-09-02T06:38:11;5.20;;;4.80;;
4508;SDS011;2267;48.816;9.230;2022-09-02T06:40:46;4.53;;;4.13;;
4508;SDS011;2267;48.816;9.230;2022-09-02T06:43:17;3.50;;;3.07;;
4508;SDS011;2267;48.816;9.230;2022-09-02T06:45:44;3.87;;;3.43;;
4508;SDS011;2267;48.816;9.230;2022-09-02T06:48:11;4.03;;;2.93;;
4508;SDS011;2267;48.816;9.230;2022-09-02T06:50:42;3.60;;;3.30;;
4508;SDS011;2267;48.816;9.230;2022-09-02T06:53:11;2.67;;;2.47;;
4508;SDS011;2267;48.816;9.230;2022-09-02T06:55:39;4.03;;;2.93;;
4508;SDS011;2267;48.816;9.230;2022-09-02T06:58:08;6.47;;;3.00;;
4508;SDS011;2267;48.816;9.230;2022-09-02T07:00:36;3.40;;;3.10;;
4508;SDS011;2267;48.816;9.230;2022-09-02T07:03:05;3.70;;;2.93;;
4508;SDS011;2267;48.816;9.230;2022-09-02T07:06:01;4.10;;;3.60;;
4508;SDS011;2267;48.816;9.230;2022-09-02T07:08:29;3.87;;;3.07;;
4508;SDS011;2267;48.816;9.230;2022-09-02T07:10:56;3.63;;;2.80;;
4508;SDS011;2267;48.816;9.230;2022-09-02T07:13:23;2.90;;;2.70;;
4508;SDS011;2267;48.816;9.230;2022-09-02T07:15:49;3.30;;;3.00;;
4508;SDS011;2267;48.816;9.230;2022-09-02T07:18:16;5.17;;;2.57;;
4508;SDS011;2267;48.816;9.230;2022-09-02T07:20:44;3.83;;;2.50;;
4508;SDS011;2267;48.816;9.230;2022-09-02T07:23:12;2.97;;;2.67;;
4508;SDS011;2267;48.816;9.230;2022-09-02T07:25:39;4.23;;;2.97;;
4508;SDS011;2267;48.816;9.230;2022-09-02T07:28:07;4.27;;;3.00;;
4508;SDS011;2267;48.816;9.230;2022-09-02T07:30:35;4.40;;;2.70;;
4508;SDS011;2267;48.816;9.230;2022-09-02T07:33:05;6.10;;;3.50;;
4508;SDS011;2267;48.816;9.230;2022-09-02T07:35:32;3.03;;;2.73;;
4508;SDS011;2267;48.816;9.230;2022-09-02T07:38:00;3.10;;;2.47;;
4508;SDS011;2267;48.816;9.230;2022-09-02T07:40:29;3.57;;;3.00;;
4508;SDS011;2267;48.816;9.230;2022-09-02T07:42:56;3.67;;;3.13;;
4508;SDS011;2267;48.816;9.230;2022-09-02T07:45:23;4.57;;;3.07;;
4508;SDS011;2267;48.816;9.230;2022-09-02T07:47:50;2.70;;;2.50;;
4508;SDS011;2267;48.816;9.230;2022-09-02T07:50:17;3.67;;;2.53;;
4508;SDS011;2267;48.816;9.230;2022-09-02T07:52:47;4.43;;;2.37;;
4508;SDS011;2267;48.816;9.230;2022-09-02T07:55:15;2.50;;;2.23;;
4508;SDS011;2267;48.816;9.230;2022-09-02T07:57:42;3.83;;;2.80;;
4508;SDS011;2267;48.816;9.230;2022-09-02T08:00:09;4.10;;;2.93;;
4508;SDS011;2267;48.816;9.230;2022-09-02T08:02:38;3.23;;;2.50;;
4508;SDS011;2267;48.816;9.230;2022-09-02T08:05:05;2.83;;;2.40;;
4508;SDS011;2267;48.816;9.230;2022-09-02T08:07:33;2.57;;;2.23;;
4508;SDS011;2267;48.816;9.230;2022-09-02T08:09:59;3.57;;;2.60;;
4508;SDS011;2267;48.816;9.230;2022-09-02T08:12:27;3.67;;;3.00;;
4508;SDS011;2267;48.816;9.230;2022-09-02T08:14:53;4.60;;;2.87;;
4508;SDS011;2267;48.816;9.230;2022-09-02T08:17:24;3.50;;;2.70;;
4508;SDS011;2267;48.816;9.230;2022-09-02T08:19:50;5.90;;;2.30;;
4508;SDS011;2267;48.816;9.230;2022-09-02T08:22:17;3.50;;;2.50;;
4508;SDS011;2267;48.816;9.230;2022-09-02T08:24:44;2.73;;;2.53;;
4508;SDS011;2267;48.816;9.230;2022-09-02T08:27:11;3.77;;;2.40;;
4508;SDS011;2267;48.816;9.230;2022-09-02T08:29:38;2.97;;;2.57;;
4508;SDS011;2267;48.816;9.230;2022-09-02T08:32:05;2.83;;;2.00;;
4508;SDS011;2267;48.816;9.230;2022-09-02T08:34:32;2.50;;;2.30;;
4508;SDS011;2267;48.816;9.230;2022-09-02T08:36:59;3.17;;;2.20;;
4508;SDS011;2267;48.816;9.230;2022-09-02T08:39:26;3.23;;;2.10;;
4508;SDS011;2267;48.816;9.230;2022-09-02T08:41:56;2.50;;;2.30;;
4508;SDS011;2267;48.816;9.230;2022-09-02T08:44:38;2.97;;;2.17;;
4508;SDS011;2267;48.816;9.230;2022-09-02T08:47:09;3.70;;;2.33;;
4508;SDS011;2267;48.816;9.230;2022-09-02T08:49:42;3.90;;;2.57;;
4508;SDS011;2267;48.816;9.230;2022-09-02T08:52:36;2.63;;;2.23;;
4508;SDS011;2267;48.816;9.230;2022-09-02T08:55:13;2.40;;;1.87;;
4508;SDS011;2267;48.816;9.230;2022-09-02T08:57:45;2.00;;;1.80;;
4508;SDS011;2267;48.816;9.230;2022-09-02T09:00:12;2.63;;;1.90;;
4508;SDS011;2267;48.816;9.230;2022-09-02T09:02:47;2.70;;;1.73;;
4508;SDS011;2267;48.816;9.230;2022-09-02T09:05:34;3.50;;;2.20;;
4508;SDS011;2267;48.816;9.230;2022-09-02T09:19:49;4.17;;;1.73;;
4508;SDS011;2267;48.816;9.230;2022-09-02T09:22:20;2.80;;;1.70;;
4508;SDS011;2267;48.816;9.230;2022-09-02T09:24:58;3.30;;;1.70;;
4508;SDS011;2267;48.816;9.230;2022-09-02T09:27:25;2.30;;;1.40;;
4508;SDS011;2267;48.816;9.230;2022-09-02T09:29:53;3.70;;;1.60;;
4508;SDS011;2267;48.816;9.230;2022-09-02T09:32:36;2.03;;;1.50;;
4508;SDS011;2267;48.816;9.230;2022-09-02T09:35:15;2.10;;;1.50;;
4508;SDS011;2267;48.816;9.230;2022-09-02T09:37:49;2.23;;;1.53;;
4508;SDS011;2267;48.816;9.230;2022-09-02T09:45:41;2.73;;;1.47;;
4508;SDS011;2267;48.816;9.230;2022-09-02T09:48:16;2.10;;;1.43;;
4508;SDS011;2267;48.816;9.230;2022-09-02T09:53:23;2.77;;;2.27;;
4508;SDS011;2267;48.816;9.230;2022-09-02T09:58:26;3.30;;;1.60;;
4508;SDS011;2267;48.816;9.230;2022-09-02T10:00:55;1.90;;;1.43;;
4508;SDS011;2267;48.816;9.230;2022-09-02T10:03:26;3.80;;;1.67;;
4508;SDS011;2267;48.816;9.230;2022-09-02T10:05:58;2.57;;;1.60;;
4508;SDS011;2267;48.816;9.230;2022-09-02T10:08:52;2.00;;;1.30;;
4508;SDS011;2267;48.816;9.230;2022-09-02T10:11:33;3.73;;;1.13;;
4508;SDS011;2267;48.816;9.230;2022-09-02T10:14:06;3.20;;;1.90;;
4508;SDS011;2267;48.816;9.230;2022-09-02T10:20:17;2.47;;;1.47;;
4508;SDS011;2267;48.816;9.230;2022-09-02T10:25:41;7.93;;;1.50;;
4508;SDS011;2267;48.816;9.230;2022-09-02T10:28:38;3.13;;;1.40;;
4508;SDS011;2267;48.816;9.230;2022-09-02T10:34:09;1.70;;;1.07;;
4508;SDS011;2267;48.816;9.230;2022-09-02T10:44:59;2.87;;;1.30;;
4508;SDS011;2267;48.816;9.230;2022-09-02T10:47:36;2.43;;;1.40;;
4508;SDS011;2267;48.816;9.230;2022-09-02T10:55:35;2.53;;;1.07;;
4508;SDS011;2267;48.816;9.230;2022-09-02T11:01:03;2.30;;;1.50;;
4508;SDS011;2267;48.816;9.230;2022-09-02T11:04:37;1.97;;;1.33;;
4508;SDS011;2267;48.816;9.230;2022-09-02T11:06:37;2.73;;;1.30;;
4508;SDS011;2267;48.816;9.230;2022-09-02T11:09:33;2.53;;;1.30;;
4508;SDS011;2267;48.816;9.230;2022-09-02T11:12:12;1.83;;;1.13;;
4508;SDS011;2267;48.816;9.230;2022-09-02T11:20:33;3.10;;;1.30;;
4508;SDS011;2267;48.816;9.230;2022-09-02T11:25:59;2.20;;;1.27;;
4508;SDS011;2267;48.816;9.230;2022-09-02T11:37:10;2.27;;;1.10;;
4508;SDS011;2267;48.816;9.230;2022-09-02T11:39:51;2.47;;;1.37;;
4508;SDS011;2267;48.816;9.230;2022-09-02T11:42:50;2.67;;;1.20;;
4508;SDS011;2267;48.816;9.230;2022-09-02T11:53:51;3.33;;;1.50;;
4508;SDS011;2267;48.816;9.230;2022-09-02T11:56:26;1.90;;;1.37;;
4508;SDS011;2267;48.816;9.230;2022-09-02T11:58:56;2.53;;;1.07;;
4508;SDS011;2267;48.816;9.230;2022-09-02T12:01:30;3.00;;;1.10;;
4508;SDS011;2267;48.816;9.230;2022-09-02T12:13:01;2.07;;;1.27;;
4508;SDS011;2267;48.816;9.230;2022-09-02T12:17:31;2.33;;;1.43;;
4508;SDS011;2267;48.816;9.230;2022-09-02T12:20:07;2.03;;;1.40;;
4508;SDS011;2267;48.816;9.230;2022-09-02T12:22:39;4.13;;;1.30;;
4508;SDS011;2267;48.816;9.230;2022-09-02T12:33:33;1.77;;;1.17;;
4508;SDS011;2267;48.816;9.230;2022-09-02T12:36:01;2.53;;;1.10;;
4508;SDS011;2267;48.816;9.230;2022-09-02T12:38:37;2.17;;;1.30;;
4508;SDS011;2267;48.816;9.230;2022-09-02T12:41:08;2.10;;;1.40;;
4508;SDS011;2267;48.816;9.230;2022-09-02T12:51:59;1.80;;;1.00;;
4508;SDS011;2267;48.816;9.230;2022-09-02T12:57:04;3.50;;;1.43;;
4508;SDS011;2267;48.816;9.230;2022-09-02T12:59:33;2.43;;;1.43;;
4508;SDS011;2267;48.816;9.230;2022-09-02T13:02:16;4.70;;;1.20;;
4508;SDS011;2267;48.816;9.230;2022-09-02T13:13:29;1.60;;;1.10;;
4508;SDS011;2267;48.816;9.230;2022-09-02T13:21:41;1.90;;;1.17;;
4508;SDS011;2267;48.816;9.230;2022-09-02T13:33:25;1.97;;;1.40;;
4508;SDS011;2267;48.816;9.230;2022-09-02T13:35:53;2.90;;;1.40;;
4508;SDS011;2267;48.816;9.230;2022-09-02T13:38:24;2.57;;;1.27;;
4508;SDS011;2267;48.816;9.230;2022-09-02T13:40:53;2.47;;;1.20;;
4508;SDS011;2267;48.816;9.230;2022-09-02T13:43:21;2.50;;;1.47;;
4508;SDS011;2267;48.816;9.230;2022-09-02T13:45:52;1.93;;;1.40;;
4508;SDS011;2267;48.816;9.230;2022-09-02T13:48:21;2.33;;;1.40;;
4508;SDS011;2267;48.816;9.230;2022-09-02T13:50:56;5.43;;;1.40;;
4508;SDS011;2267;48.816;9.230;2022-09-02T13:53:36;2.00;;;1.50;;
4508;SDS011;2267;48.816;9.230;2022-09-02T13:56:24;2.20;;;1.20;;
4508;SDS011;2267;48.816;9.230;2022-09-02T13:58:56;4.53;;;1.47;;
4508;SDS011;2267;48.816;9.230;2022-09-02T14:01:26;2.43;;;1.20;;
4508;SDS011;2267;48.816;9.230;2022-09-02T14:03:58;2.20;;;1.30;;
4508;SDS011;2267;48.816;9.230;2022-09-02T14:06:34;2.57;;;1.17;;
4508;SDS011;2267;48.816;9.230;2022-09-02T14:09:04;1.90;;;1.20;;
4508;SDS011;2267;48.816;9.230;2022-09-02T14:11:42;2.00;;;1.30;;
4508;SDS011;2267;48.816;9.230;2022-09-02T14:14:12;2.80;;;1.40;;
4508;SDS011;2267;48.816;9.230;2022-09-02T14:16:40;2.40;;;1.33;;
4508;SDS011;2267;48.816;9.230;2022-09-02T14:21:36;2.93;;;1.70;;
4508;SDS011;2267;48.816;9.230;2022-09-02T14:24:14;6.30;;;2.17;;
4508;SDS011;2267;48.816;9.230;2022-09-02T14:26:45;2.70;;;1.60;;
4508;SDS011;2267;48.816;9.230;2022-09-02T14:29:14;2.60;;;1.30;;
4508;SDS011;2267;48.816;9.230;2022-09-02T14:31:42;2.10;;;1.60;;
4508;SDS011;2267;48.816;9.230;2022-09-02T14:36:59;1.97;;;1.27;;
4508;SDS011;2267;48.816;9.230;2022-09-02T14:39:26;2.30;;;1.53;;
4508;SDS011;2267;48.816;9.230;2022-09-02T14:41:53;4.73;;;1.40;;
4508;SDS011;2267;48.816;9.230;2022-09-02T14:47:00;1.80;;;1.40;;
4508;SDS011;2267;48.816;9.230;2022-09-02T14:49:36;4.20;;;1.20;;
4508;SDS011;2267;48.816;9.230;2022-09-02T14:52:20;4.23;;;1.40;;
4508;SDS011;2267;48.816;9.230;2022-09-02T14:54:53;3.50;;;1.40;;
4508;SDS011;2267;48.816;9.230;2022-09-02T14:59:53;1.70;;;1.20;;
4508;SDS011;2267;48.816;9.230;2022-09-02T15:02:31;1.63;;;1.00;;
4508;SDS011;2267;48.816;9.230;2022-09-02T15:05:04;2.30;;;1.53;;
4508;SDS011;2267;48.816;9.230;2022-09-02T15:07:33;2.77;;;1.50;;
4508;SDS011;2267;48.816;9.230;2022-09-02T15:09:59;3.33;;;2.03;;
4508;SDS011;2267;48.816;9.230;2022-09-02T15:12:29;1.63;;;1.10;;
4508;SDS011;2267;48.816;9.230;2022-09-02T15:14:59;1.80;;;1.50;;
4508;SDS011;2267;48.816;9.230;2022-09-02T15:17:26;1.80;;;1.20;;
4508;SDS011;2267;48.816;9.230;2022-09-02T15:19:54;2.37;;;1.30;;
4508;SDS011;2267;48.816;9.230;2022-09-02T15:22:22;2.77;;;1.37;;
4508;SDS011;2267;48.816;9.230;2022-09-02T15:24:50;2.43;;;1.17;;
4508;SDS011;2267;48.816;9.230;2022-09-02T15:27:17;2.40;;;1.60;;
4508;SDS011;2267;48.816;9.230;2022-09-02T15:29:47;1.70;;;1.20;;
4508;SDS011;2267;48.816;9.230;2022-09-02T15:32:14;1.90;;;1.23;;
4508;SDS011;2267;48.816;9.230;2022-09-02T15:34:41;2.20;;;1.20;;
4508;SDS011;2267;48.816;9.230;2022-09-02T15:37:08;1.60;;;1.10;;
4508;SDS011;2267;48.816;9.230;2022-09-02T15:39:38;2.57;;;1.57;;
4508;SDS011;2267;48.816;9.230;2022-09-02T15:42:05;3.50;;;1.30;;
4508;SDS011;2267;48.816;9.230;2022-09-02T15:44:32;3.70;;;1.40;;
4508;SDS011;2267;48.816;9.230;2022-09-02T15:46:59;3.33;;;1.30;;
4508;SDS011;2267;48.816;9.230;2022-09-02T15:49:25;2.03;;;1.20;;
4508;SDS011;2267;48.816;9.230;2022-09-02T15:51:52;4.10;;;1.47;;
4508;SDS011;2267;48.816;9.230;2022-09-02T15:54:21;2.20;;;1.50;;
4508;SDS011;2267;48.816;9.230;2022-09-02T15:56:52;1.70;;;1.07;;
4508;SDS011;2267;48.816;9.230;2022-09-02T15:59:21;1.70;;;1.10;;
4508;SDS011;2267;48.816;9.230;2022-09-02T16:01:49;3.00;;;1.40;;
4508;SDS011;2267;48.816;9.230;2022-09-02T16:04:17;2.33;;;1.00;;
4508;SDS011;2267;48.816;9.230;2022-09-02T16:06:46;3.40;;;1.40;;
4508;SDS011;2267;48.816;9.230;2022-09-02T16:09:15;1.87;;;1.20;;
4508;SDS011;2267;48.816;9.230;2022-09-02T16:11:44;2.57;;;1.70;;
4508;SDS011;2267;48.816;9.230;2022-09-02T16:14:12;1.90;;;1.27;;
4508;SDS011;2267;48.816;9.230;2022-09-02T16:16:45;2.53;;;1.17;;
4508;SDS011;2267;48.816;9.230;2022-09-02T16:19:13;2.20;;;1.40;;
4508;SDS011;2267;48.816;9.230;2022-09-02T16:21:40;2.00;;;1.37;;
4508;SDS011;2267;48.816;9.230;2022-09-02T16:24:07;2.67;;;1.43;;
4508;SDS011;2267;48.816;9.230;2022-09-02T16:26:38;2.00;;;1.30;;
4508;SDS011;2267;48.816;9.230;2022-09-02T16:29:09;2.90;;;1.50;;
4508;SDS011;2267;48.816;9.230;2022-09-02T16:31:43;2.07;;;1.20;;
4508;SDS011;2267;48.816;9.230;2022-09-02T16:34:31;1.80;;;1.40;;
4508;SDS011;2267;48.816;9.230;2022-09-02T16:36:58;2.20;;;1.30;;
4508;SDS011;2267;48.816;9.230;2022-09-02T16:39:25;4.50;;;1.60;;
4508;SDS011;2267;48.816;9.230;2022-09-02T16:41:52;2.00;;;1.67;;
4508;SDS011;2267;48.816;9.230;2022-09-02T16:44:20;2.30;;;1.30;;
4508;SDS011;2267;48.816;9.230;2022-09-02T16:46:48;2.80;;;1.33;;
4508;SDS011;2267;48.816;9.230;2022-09-02T16:49:18;2.43;;;1.30;;
4508;SDS011;2267;48.816;9.230;2022-09-02T16:51:46;2.67;;;1.70;;
4508;SDS011;2267;48.816;9.230;2022-09-02T16:54:15;2.20;;;1.60;;
4508;SDS011;2267;48.816;9.230;2022-09-02T16:56:46;2.53;;;1.47;;
4508;SDS011;2267;48.816;9.230;2022-09-02T16:59:13;1.80;;;1.33;;
4508;SDS011;2267;48.816;9.230;2022-09-02T17:01:40;2.50;;;1.43;;
4508;SDS011;2267;48.816;9.230;2022-09-02T17:04:07;1.90;;;1.33;;
4508;SDS011;2267;48.816;9.230;2022-09-02T17:06:34;2.23;;;1.50;;
4508;SDS011;2267;48.816;9.230;2022-09-02T17:09:07;2.93;;;1.57;;
4508;SDS011;2267;48.816;9.230;2022-09-02T17:11:35;3.23;;;1.60;;
4508;SDS011;2267;48.816;9.230;2022-09-02T17:14:06;2.33;;;1.40;;
4508;SDS011;2267;48.816;9.230;2022-09-02T17:16:36;2.00;;;1.30;;
4508;SDS011;2267;48.816;9.230;2022-09-02T17:19:05;3.77;;;1.53;;
4508;SDS011;2267;48.816;9.230;2022-09-02T17:21:34;2.67;;;1.67;;
4508;SDS011;2267;48.816;9.230;2022-09-02T17:24:03;4.73;;;2.00;;
4508;SDS011;2267;48.816;9.230;2022-09-02T17:26:32;2.97;;;1.67;;
4508;SDS011;2267;48.816;9.230;2022-09-02T17:29:06;2.40;;;1.50;;
4508;SDS011;2267;48.816;9.230;2022-09-02T17:32:03;1.90;;;1.47;;
4508;SDS011;2267;48.816;9.230;2022-09-02T17:34:29;2.57;;;1.33;;
4508;SDS011;2267;48.816;9.230;2022-09-02T17:36:58;4.20;;;1.60;;
4508;SDS011;2267;48.816;9.230;2022-09-02T17:39:25;2.40;;;1.57;;
4508;SDS011;2267;48.816;9.230;2022-09-02T17:41:52;3.03;;;1.43;;
4508;SDS011;2267;48.816;9.230;2022-09-02T17:44:26;2.10;;;1.53;;
4508;SDS011;2267;48.816;9.230;2022-09-02T17:47:01;2.03;;;1.50;;
4508;SDS011;2267;48.816;9.230;2022-09-02T17:49:31;4.07;;;2.07;;
4508;SDS011;2267;48.816;9.230;2022-09-02T17:52:02;3.03;;;1.60;;
4508;SDS011;2267;48.816;9.230;2022-09-02T17:54:33;3.23;;;1.60;;
4508;SDS011;2267;48.816;9.230;2022-09-02T17:57:19;3.70;;;2.07;;
4508;SDS011;2267;48.816;9.230;2022-09-02T18:05:34;2.37;;;2.03;;
4508;SDS011;2267;48.816;9.230;2022-09-02T18:08:11;3.80;;;2.03;;